Time;durP1;ratioP1;P1;durP2;ratioP2;P2;SDS_P1;SDS_P2;PMS_P1;PMS_P2;Temp;Humidity;BMP_temperature;BMP_pressure;BME280_temperature;BME280_humidity;BME280_pressure;Samples;Min_cycle;Max_cycle;Signal;HPM_P1;HPM_P2
2022/03/15 00:01:22;;;;;;;15.02;10.38;;;3.30;99.90;;;;;;5034191;28;20408;-58
2022/03/15 00:03:49;;;;;;;15.07;10.77;;;3.30;99.90;;;;;;5052617;28;20048;-58
2022/03/15 00:06:15;;;;;;;13.95;9.38;;;3.40;99.90;;;;;;5040883;28;20520;-58
2022/03/15 00:08:44;;;;;;;13.18;10.50;;;3.30;99.90;;;;;;5040899;28;20144;-58
2022/03/15 00:11:11;;;;;;;20.35;12.20;;;3.30;99.90;;;;;;5052658;28;20124;-58
2022/03/15 00:13:38;;;;;;;15.73;10.15;;;3.40;99.90;;;;;;5040137;28;20084;-58
2022/03/15 00:16:07;;;;;;;16.30;10.73;;;3.40;99.90;;;;;;5032218;28;20048;-58
2022/03/15 00:18:33;;;;;;;15.85;10.18;;;3.40;99.90;;;;;;5032463;28;20041;-59
2022/03/15 00:21:04;;;;;;;18.35;10.52;;;3.40;99.90;;;;;;5040111;28;20037;-58
2022/03/15 00:23:33;;;;;;;18.25;10.43;;;3.50;99.90;;;;;;5041027;28;20126;-57
2022/03/15 00:26:00;;;;;;;14.43;11.07;;;3.50;99.90;;;;;;5040864;28;20049;-58
2022/03/15 00:28:26;;;;;;;16.13;10.70;;;3.50;99.90;;;;;;5037310;28;20037;-58
2022/03/15 00:30:53;;;;;;;19.13;11.20;;;3.50;99.90;;;;;;5040328;28;20567;-58
2022/03/15 00:33:19;;;;;;;16.15;11.00;;;3.50;99.90;;;;;;5033916;28;20056;-58
2022/03/15 00:35:47;;;;;;;20.92;11.93;;;3.50;99.90;;;;;;5005751;28;20134;-58
2022/03/15 00:38:14;;;;;;;21.10;13.27;;;3.50;99.90;;;;;;5031432;28;20049;-58
2022/03/15 00:40:40;;;;;;;22.48;14.23;;;3.50;99.90;;;;;;5037493;28;20782;-58
2022/03/15 00:43:07;;;;;;;19.90;14.23;;;3.50;99.90;;;;;;5038681;28;20041;-59
2022/03/15 00:45:34;;;;;;;19.02;13.50;;;3.50;99.90;;;;;;5013711;28;20573;-60
2022/03/15 00:48:00;;;;;;;24.25;14.07;;;3.50;99.90;;;;;;5020798;28;20506;-59
2022/03/15 00:50:29;;;;;;;16.95;12.82;;;3.40;99.90;;;;;;5039544;28;20088;-58
2022/03/15 00:52:57;;;;;;;20.05;14.52;;;3.30;99.90;;;;;;5054856;28;20053;-58
2022/03/15 00:55:23;;;;;;;24.05;13.95;;;3.30;99.90;;;;;;5036715;28;20041;-58
2022/03/15 00:57:49;;;;;;;16.30;12.68;;;3.30;99.90;;;;;;5040128;28;20408;-58
2022/03/15 01:00:16;;;;;;;17.30;13.40;;;3.20;99.90;;;;;;5039485;28;20046;-57
2022/03/15 01:02:42;;;;;;;19.65;13.25;;;3.20;99.90;;;;;;5039328;28;20063;-58
2022/03/15 01:05:09;;;;;;;21.23;12.15;;;3.20;99.90;;;;;;5049109;28;20048;-58
2022/03/15 01:07:38;;;;;;;22.02;13.32;;;3.20;99.90;;;;;;5048375;28;20057;-58
2022/03/15 01:10:07;;;;;;;19.58;13.43;;;3.20;99.90;;;;;;5044266;28;20037;-58
2022/03/15 01:12:33;;;;;;;18.75;13.13;;;3.20;99.90;;;;;;5039563;28;20351;-58
2022/03/15 01:14:59;;;;;;;21.23;14.30;;;3.10;99.90;;;;;;5058464;28;20051;-57
2022/03/15 01:17:26;;;;;;;19.67;13.75;;;3.30;99.90;;;;;;5028567;28;20559;-59
2022/03/15 01:19:52;;;;;;;21.50;14.75;;;3.30;99.90;;;;;;5042288;28;20142;-59
2022/03/15 01:22:18;;;;;;;22.58;14.07;;;3.30;99.90;;;;;;5059153;28;20404;-57
2022/03/15 01:24:44;;;;;;;32.67;18.33;;;3.50;99.90;;;;;;5058212;28;20106;-58
2022/03/15 01:27:13;;;;;;;29.90;17.42;;;3.60;99.90;;;;;;5034377;28;20119;-58
2022/03/15 01:29:39;;;;;;;28.20;17.48;;;3.70;99.90;;;;;;5036583;28;20120;-57
2022/03/15 01:32:05;;;;;;;26.05;16.95;;;3.80;99.90;;;;;;5042898;28;20835;-58
2022/03/15 01:34:31;;;;;;;25.77;17.45;;;3.90;99.90;;;;;;5058287;28;20067;-57
2022/03/15 01:36:58;;;;;;;28.77;17.25;;;3.90;99.90;;;;;;5050780;28;20041;-58
2022/03/15 01:39:24;;;;;;;24.83;15.90;;;3.90;99.90;;;;;;5035481;28;20107;-57
2022/03/15 01:41:50;;;;;;;21.98;15.23;;;3.90;99.90;;;;;;5032929;28;20049;-58
2022/03/15 01:44:21;;;;;;;27.10;15.57;;;3.90;99.90;;;;;;5025326;28;20064;-59
2022/03/15 01:46:49;;;;;;;27.00;16.23;;;3.80;99.90;;;;;;5044511;28;20056;-60
2022/03/15 01:49:18;;;;;;;24.90;16.00;;;3.80;99.90;;;;;;5043790;28;20120;-60
2022/03/15 01:51:47;;;;;;;23.95;15.65;;;3.80;99.90;;;;;;5042517;28;20130;-58
2022/03/15 01:54:14;;;;;;;21.65;15.75;;;3.70;99.90;;;;;;5030581;28;20041;-58
2022/03/15 01:56:42;;;;;;;23.35;15.60;;;3.70;99.90;;;;;;5023382;28;20053;-58
2022/03/15 01:59:10;;;;;;;22.95;14.95;;;3.60;99.90;;;;;;5034280;28;20052;-60
2022/03/15 02:01:41;;;;;;;25.73;16.02;;;3.60;99.90;;;;;;5021058;28;20043;-60
2022/03/15 02:04:08;;;;;;;24.17;14.73;;;3.60;99.90;;;;;;5039637;28;20130;-60
2022/03/15 02:06:38;;;;;;;27.00;14.55;;;3.60;99.90;;;;;;5040961;28;20049;-60
2022/03/15 02:09:09;;;;;;;18.58;13.90;;;3.50;99.90;;;;;;5057444;28;20063;-60
2022/03/15 02:11:36;;;;;;;19.02;13.20;;;3.50;99.90;;;;;;5040221;28;20070;-60
2022/03/15 02:14:04;;;;;;;22.40;14.02;;;3.50;99.90;;;;;;5041607;28;20063;-59
2022/03/15 02:16:32;;;;;;;22.33;14.55;;;3.40;99.90;;;;;;5041985;28;20052;-60
2022/03/15 02:18:58;;;;;;;22.27;13.65;;;3.40;99.90;;;;;;5031705;28;20056;-60
2022/03/15 02:21:28;;;;;;;18.48;14.20;;;3.40;99.90;;;;;;5041004;28;20052;-60
2022/03/15 02:23:55;;;;;;;20.27;13.98;;;3.40;99.90;;;;;;5024929;28;20106;-60
2022/03/15 02:26:21;;;;;;;24.02;14.82;;;3.40;99.90;;;;;;5041131;28;20080;-59
2022/03/15 02:28:47;;;;;;;24.40;14.18;;;3.40;99.90;;;;;;5037225;28;20111;-59
2022/03/15 02:31:14;;;;;;;18.85;13.05;;;3.40;99.90;;;;;;5038656;28;20053;-57
2022/03/15 02:33:40;;;;;;;21.92;14.95;;;3.30;99.90;;;;;;5034867;28;20449;-58
2022/03/15 02:36:07;;;;;;;18.83;13.43;;;3.30;99.90;;;;;;5039919;28;20071;-58
2022/03/15 02:38:33;;;;;;;24.08;14.90;;;3.30;99.90;;;;;;5041096;28;20142;-59
2022/03/15 02:40:59;;;;;;;23.52;13.27;;;3.20;99.90;;;;;;5042951;28;20069;-58
2022/03/15 02:43:25;;;;;;;20.55;14.43;;;3.20;99.90;;;;;;5055470;28;20345;-57
2022/03/15 02:45:51;;;;;;;20.05;13.55;;;3.20;99.90;;;;;;5043156;28;21002;-57
2022/03/15 02:48:17;;;;;;;24.38;14.82;;;3.20;99.90;;;;;;5055332;28;20063;-57
2022/03/15 02:50:44;;;;;;;19.33;13.82;;;3.20;99.90;;;;;;5043058;28;20052;-57
2022/03/15 02:53:12;;;;;;;26.50;16.48;;;3.10;99.90;;;;;;5042834;28;20569;-58
2022/03/15 02:55:38;;;;;;;23.95;14.95;;;3.10;99.90;;;;;;5035162;28;20132;-58
2022/03/15 02:58:04;;;;;;;23.23;14.80;;;3.10;99.90;;;;;;5037370;28;20055;-57
2022/03/15 03:00:30;;;;;;;22.63;14.52;;;3.10;99.90;;;;;;5031508;28;20044;-57
2022/03/15 03:08:43;;;;;;;24.08;16.02;;;3.10;99.90;;;;;;5037241;28;20093;-60
2022/03/15 03:11:09;;;;;;;26.85;16.63;;;3.10;99.90;;;;;;5049228;28;20071;-59
2022/03/15 03:13:37;;;;;;;25.42;16.17;;;3.00;99.90;;;;;;5040329;28;20045;-60
2022/03/15 03:16:05;;;;;;;18.55;15.75;;;3.00;99.90;;;;;;5041264;28;20106;-60
2022/03/15 03:18:32;;;;;;;23.52;15.48;;;3.00;99.90;;;;;;5031441;28;20037;-60
2022/03/15 03:21:04;;;;;;;22.05;16.73;;;3.00;99.90;;;;;;5041514;28;20526;-60
2022/03/15 03:23:33;;;;;;;20.58;16.13;;;3.00;99.90;;;;;;5037478;28;20055;-60
2022/03/15 03:25:59;;;;;;;24.25;14.48;;;3.00;99.90;;;;;;5036141;28;20493;-60
2022/03/15 03:28:30;;;;;;;20.15;14.95;;;3.00;99.90;;;;;;5041303;28;20132;-57
2022/03/15 03:30:58;;;;;;;24.83;16.13;;;3.10;99.90;;;;;;5029396;28;20503;-60
2022/03/15 03:33:25;;;;;;;21.98;15.50;;;3.10;99.90;;;;;;5039337;28;20065;-58
2022/03/15 03:35:51;;;;;;;22.20;15.00;;;3.10;99.90;;;;;;5056528;28;20041;-60
2022/03/15 03:38:17;;;;;;;22.88;15.07;;;3.10;99.90;;;;;;5041519;28;20064;-60
2022/03/15 03:40:44;;;;;;;20.13;14.43;;;3.00;99.90;;;;;;5039945;28;20037;-60
2022/03/15 03:43:10;;;;;;;22.33;16.48;;;3.10;99.90;;;;;;5012528;28;20497;-60
2022/03/15 03:45:36;;;;;;;25.08;17.67;;;3.10;99.90;;;;;;5044943;28;20041;-60
2022/03/15 03:48:04;;;;;;;24.10;18.10;;;3.10;99.90;;;;;;5031344;28;20045;-60
2022/03/15 03:50:30;;;;;;;25.17;17.60;;;3.20;99.90;;;;;;5037336;28;20049;-58
2022/03/15 03:52:56;;;;;;;27.48;17.63;;;3.20;99.90;;;;;;5021472;28;20064;-57
2022/03/15 03:55:22;;;;;;;23.25;17.02;;;3.20;99.90;;;;;;5024826;28;20099;-57
2022/03/15 03:57:48;;;;;;;23.88;17.58;;;3.30;99.90;;;;;;5030258;28;20479;-57
2022/03/15 04:00:16;;;;;;;25.75;17.83;;;3.30;99.90;;;;;;5041859;28;20036;-57
2022/03/15 04:02:42;;;;;;;18.90;16.25;;;3.30;99.90;;;;;;5045064;28;20051;-57
2022/03/15 04:05:09;;;;;;;21.55;15.32;;;3.40;99.90;;;;;;5039781;28;20413;-60
2022/03/15 04:07:35;;;;;;;21.70;16.90;;;3.40;99.90;;;;;;5037406;28;20069;-60
2022/03/15 04:10:05;;;;;;;22.58;17.27;;;3.40;99.90;;;;;;5038779;28;20041;-60
2022/03/15 04:12:32;;;;;;;24.73;17.23;;;3.40;99.90;;;;;;5036266;28;20052;-60
2022/03/15 04:14:59;;;;;;;20.52;17.33;;;3.40;99.90;;;;;;5035180;28;20682;-61
2022/03/15 04:17:26;;;;;;;19.05;16.02;;;3.50;99.90;;;;;;5040826;28;20081;-60
2022/03/15 04:19:53;;;;;;;23.13;18.20;;;3.50;99.90;;;;;;5031763;28;20514;-60
2022/03/15 04:22:19;;;;;;;21.67;16.63;;;3.50;99.90;;;;;;5040374;28;20051;-60
2022/03/15 04:24:46;;;;;;;23.92;16.35;;;3.50;99.90;;;;;;5032424;28;20071;-60
2022/03/15 04:27:12;;;;;;;21.40;15.95;;;3.60;99.90;;;;;;5041632;28;20036;-62
2022/03/15 04:29:38;;;;;;;23.00;16.17;;;3.50;99.90;;;;;;5043113;28;20528;-60
2022/03/15 04:32:05;;;;;;;24.73;17.13;;;3.60;99.90;;;;;;5020930;28;20055;-60
2022/03/15 04:34:33;;;;;;;20.95;15.57;;;3.60;99.90;;;;;;5039204;28;20504;-60
2022/03/15 04:37:01;;;;;;;23.40;15.50;;;3.60;99.90;;;;;;5055167;28;20122;-60
2022/03/15 04:39:27;;;;;;;21.35;15.98;;;3.60;99.90;;;;;;5033742;28;20729;-60
2022/03/15 04:41:54;;;;;;;20.17;14.50;;;3.60;99.90;;;;;;5022687;28;20391;-60
2022/03/15 04:44:20;;;;;;;22.67;14.02;;;3.60;99.90;;;;;;5010296;28;20040;-60
2022/03/15 04:46:46;;;;;;;23.38;16.85;;;3.50;99.90;;;;;;5040531;28;20048;-59
2022/03/15 04:49:13;;;;;;;26.50;17.25;;;3.60;99.90;;;;;;5035472;28;20055;-60
2022/03/15 04:51:39;;;;;;;27.63;17.73;;;3.60;99.90;;;;;;5053864;28;20110;-60
2022/03/15 04:54:05;;;;;;;25.20;17.95;;;3.60;99.90;;;;;;5044512;28;20040;-60
2022/03/15 04:56:31;;;;;;;27.25;17.75;;;3.60;99.90;;;;;;5030249;28;20033;-60
2022/03/15 04:58:58;;;;;;;25.23;16.50;;;3.70;99.90;;;;;;5039617;28;20131;-57
2022/03/15 05:01:24;;;;;;;22.20;16.10;;;3.70;99.90;;;;;;5042149;28;20048;-57
2022/03/15 05:03:50;;;;;;;21.80;15.15;;;3.70;99.90;;;;;;5042760;28;20063;-60
2022/03/15 05:06:17;;;;;;;24.27;15.88;;;3.70;99.90;;;;;;5042340;28;20053;-60
2022/03/15 05:08:43;;;;;;;25.50;17.80;;;3.80;99.90;;;;;;5043272;28;20511;-60
2022/03/15 05:11:09;;;;;;;33.72;17.88;;;3.80;99.90;;;;;;5044460;28;20124;-59
2022/03/15 05:13:46;;;;;;;27.00;18.17;;;3.80;99.90;;;;;;5035138;28;20466;-60
2022/03/15 05:16:17;;;;;;;28.20;17.75;;;3.80;99.90;;;;;;5042551;28;20678;-60
2022/03/15 05:18:44;;;;;;;31.95;17.77;;;3.80;99.90;;;;;;5042624;28;20611;-59
2022/03/15 05:21:16;;;;;;;26.65;18.85;;;3.80;99.90;;;;;;5039629;28;21596;-60
2022/03/15 05:23:43;;;;;;;27.10;17.05;;;3.90;99.90;;;;;;5060233;28;20045;-60
2022/03/15 05:26:10;;;;;;;27.73;19.08;;;3.90;99.90;;;;;;5041466;28;20076;-60
2022/03/15 05:28:36;;;;;;;36.10;20.33;;;3.90;99.90;;;;;;5032626;28;20115;-60
2022/03/15 05:31:05;;;;;;;35.08;21.80;;;4.00;99.90;;;;;;5041364;28;20148;-60
2022/03/15 05:33:31;;;;;;;45.08;25.00;;;4.00;99.90;;;;;;5040386;28;20053;-61
2022/03/15 05:35:57;;;;;;;35.22;24.08;;;4.10;99.90;;;;;;5058909;28;20124;-60
2022/03/15 05:38:24;;;;;;;33.22;23.80;;;4.10;99.90;;;;;;5038473;28;20052;-60
2022/03/15 05:40:50;;;;;;;40.10;26.15;;;4.20;99.90;;;;;;5041795;28;20530;-60
2022/03/15 05:43:19;;;;;;;37.72;26.17;;;4.20;99.90;;;;;;5042411;28;20528;-60
2022/03/15 05:45:45;;;;;;;40.85;24.73;;;4.30;99.90;;;;;;5041455;28;20474;-60
2022/03/15 05:48:12;;;;;;;41.65;24.75;;;4.30;99.90;;;;;;5028222;28;20591;-56
2022/03/15 05:50:38;;;;;;;40.42;25.98;;;4.30;99.90;;;;;;5021394;28;20443;-57
2022/03/15 05:53:05;;;;;;;37.28;24.08;;;4.40;99.90;;;;;;5033876;28;20592;-58
2022/03/15 05:55:32;;;;;;;36.72;24.92;;;4.40;99.90;;;;;;5053794;28;20480;-57
2022/03/15 05:57:59;;;;;;;38.10;24.30;;;4.40;99.90;;;;;;5039864;28;20395;-58
2022/03/15 06:00:26;;;;;;;36.08;22.98;;;4.40;99.90;;;;;;5043781;28;20080;-58
2022/03/15 06:02:53;;;;;;;33.40;21.83;;;4.40;99.90;;;;;;5043573;28;20124;-58
2022/03/15 06:05:19;;;;;;;34.30;22.63;;;4.40;99.90;;;;;;5041209;28;20049;-58
2022/03/15 06:07:47;;;;;;;37.95;24.27;;;4.40;99.90;;;;;;5041279;28;20048;-61
2022/03/15 06:10:15;;;;;;;40.97;26.95;;;4.40;99.90;;;;;;5043276;28;20075;-61
2022/03/15 06:12:45;;;;;;;40.85;25.42;;;4.50;99.90;;;;;;5043620;28;20385;-57
2022/03/15 06:15:11;;;;;;;42.65;27.52;;;4.50;99.90;;;;;;5038127;28;20060;-61
2022/03/15 06:17:49;;;;;;;50.00;31.13;;;4.60;99.90;;;;;;5040759;28;20140;-61
2022/03/15 06:20:18;;;;;;;50.67;31.63;;;4.60;99.90;;;;;;5040429;28;20049;-61
2022/03/15 06:22:49;;;;;;;56.47;33.15;;;4.70;99.90;;;;;;5039421;28;20148;-61
2022/03/15 06:25:18;;;;;;;49.78;32.63;;;4.70;99.90;;;;;;5039902;28;20056;-60
2022/03/15 06:27:44;;;;;;;51.30;32.90;;;4.70;99.90;;;;;;5040634;28;20044;-61
2022/03/15 06:30:12;;;;;;;61.10;36.40;;;4.80;99.90;;;;;;5039385;28;20106;-59
2022/03/15 06:32:39;;;;;;;58.67;36.20;;;4.80;99.90;;;;;;5040053;28;20125;-58
2022/03/15 06:35:07;;;;;;;54.72;35.90;;;4.90;99.90;;;;;;5055971;28;20048;-59
2022/03/15 06:37:39;;;;;;;57.30;36.22;;;4.90;99.90;;;;;;5024379;28;20127;-59
2022/03/15 06:40:07;;;;;;;58.38;36.80;;;5.00;99.90;;;;;;5040751;28;20052;-56
2022/03/15 06:42:33;;;;;;;58.00;36.78;;;5.00;99.90;;;;;;5037972;28;20540;-59
2022/03/15 06:44:59;;;;;;;62.50;37.67;;;5.00;99.90;;;;;;5037803;28;20088;-61
2022/03/15 06:47:27;;;;;;;61.83;37.90;;;5.00;99.90;;;;;;5044123;28;20577;-57
2022/03/15 06:49:53;;;;;;;52.40;35.78;;;5.10;99.90;;;;;;5055581;28;20079;-56
2022/03/15 06:52:20;;;;;;;57.83;36.17;;;5.10;99.90;;;;;;5024250;28;20076;-58
2022/03/15 06:54:46;;;;;;;58.25;37.50;;;5.10;99.90;;;;;;5040360;28;20052;-58
2022/03/15 06:57:14;;;;;;;62.97;40.15;;;5.20;99.90;;;;;;5040207;28;20056;-58
2022/03/15 06:59:41;;;;;;;64.25;39.08;;;5.30;99.90;;;;;;5042551;28;20451;-56
2022/03/15 07:02:07;;;;;;;58.03;38.30;;;5.30;99.90;;;;;;5053277;28;20048;-60
2022/03/15 07:04:33;;;;;;;58.88;38.75;;;5.40;99.90;;;;;;5039497;28;20467;-60
2022/03/15 07:06:59;;;;;;;62.90;40.33;;;5.40;99.90;;;;;;5038431;28;20045;-58
2022/03/15 07:09:25;;;;;;;59.97;40.08;;;5.50;99.90;;;;;;5057999;28;20045;-59
2022/03/15 07:11:51;;;;;;;56.05;40.10;;;5.50;99.90;;;;;;5045249;28;20049;-58
2022/03/15 07:14:17;;;;;;;55.67;37.90;;;5.60;99.90;;;;;;5048856;28;20151;-56
2022/03/15 07:16:43;;;;;;;54.42;37.80;;;5.60;99.90;;;;;;5040871;28;20053;-57
2022/03/15 07:19:09;;;;;;;61.97;40.45;;;5.70;99.90;;;;;;5042317;28;20055;-59
2022/03/15 07:21:35;;;;;;;58.67;38.35;;;5.70;99.90;;;;;;5042390;28;20037;-59
2022/03/15 07:24:01;;;;;;;56.42;38.55;;;5.80;99.90;;;;;;5048543;28;20051;-59
2022/03/15 07:26:28;;;;;;;57.22;38.80;;;5.80;99.90;;;;;;5056274;28;20411;-61
2022/03/15 07:28:54;;;;;;;50.05;35.90;;;5.80;99.90;;;;;;5039407;28;20086;-59
2022/03/15 07:31:20;;;;;;;47.25;36.55;;;5.90;99.90;;;;;;5039613;28;20132;-59
2022/03/15 07:33:47;;;;;;;50.22;37.50;;;5.90;99.90;;;;;;5022407;28;20057;-59
2022/03/15 07:36:14;;;;;;;52.00;38.10;;;6.00;99.90;;;;;;5056806;28;20451;-59
2022/03/15 07:38:40;;;;;;;52.78;37.03;;;6.10;99.90;;;;;;5041293;28;20049;-60
2022/03/15 07:41:06;;;;;;;55.25;38.47;;;6.10;99.90;;;;;;5042660;28;20041;-60
2022/03/15 07:43:34;;;;;;;51.50;38.45;;;6.20;99.90;;;;;;5041195;28;20119;-59
2022/03/15 07:46:00;;;;;;;52.58;38.05;;;6.20;99.90;;;;;;5057144;28;20162;-60
2022/03/15 07:48:26;;;;;;;55.83;36.92;;;6.20;99.90;;;;;;5042247;28;20052;-59
2022/03/15 07:50:52;;;;;;;48.88;36.42;;;6.30;99.90;;;;;;5023370;28;20053;-60
2022/03/15 07:53:19;;;;;;;53.35;37.03;;;6.30;99.90;;;;;;5023561;28;20056;-59
2022/03/15 07:55:45;;;;;;;50.42;35.58;;;6.40;99.90;;;;;;5023871;28;20049;-59
2022/03/15 07:58:11;;;;;;;50.83;35.50;;;6.30;99.90;;;;;;5042476;28;20079;-59
2022/03/15 08:00:38;;;;;;;56.83;37.53;;;6.40;99.90;;;;;;5040013;28;20052;-60
2022/03/15 08:03:04;;;;;;;47.28;35.75;;;6.40;99.90;;;;;;5024065;28;20445;-60
2022/03/15 08:05:30;;;;;;;47.17;34.95;;;6.50;99.90;;;;;;5041240;28;20041;-60
2022/03/15 08:07:56;;;;;;;44.85;34.60;;;6.50;99.90;;;;;;5040351;28;20045;-56
2022/03/15 08:10:22;;;;;;;49.45;37.08;;;6.60;99.90;;;;;;5041596;28;20049;-56
2022/03/15 08:12:49;;;;;;;48.83;35.58;;;6.60;99.90;;;;;;5039903;28;20057;-57
2022/03/15 08:15:15;;;;;;;47.42;36.30;;;6.60;99.90;;;;;;5021208;28;20060;-57
2022/03/15 08:17:41;;;;;;;46.10;35.08;;;6.60;99.90;;;;;;5043367;28;20045;-57
2022/03/15 08:20:13;;;;;;;47.65;35.80;;;6.70;99.90;;;;;;5046530;28;20049;-57
2022/03/15 08:22:39;;;;;;;46.50;35.67;;;6.80;99.90;;;;;;5030373;28;20045;-60
2022/03/15 08:25:06;;;;;;;42.17;35.67;;;6.80;99.90;;;;;;5046737;28;20295;-57
2022/03/15 08:27:32;;;;;;;46.53;35.67;;;6.80;99.90;;;;;;5043930;28;20174;-59
2022/03/15 08:29:58;;;;;;;45.42;35.08;;;6.90;99.90;;;;;;5045876;28;20080;-59
2022/03/15 08:32:24;;;;;;;48.35;35.80;;;6.90;99.90;;;;;;5045600;28;20051;-60
2022/03/15 08:34:52;;;;;;;49.67;34.55;;;6.90;99.90;;;;;;5059615;28;20495;-60
2022/03/15 08:37:18;;;;;;;42.92;32.13;;;6.90;99.90;;;;;;5043095;28;20466;-59
2022/03/15 08:39:44;;;;;;;49.50;35.10;;;7.00;99.90;;;;;;5041940;28;20041;-60
2022/03/15 08:42:11;;;;;;;48.65;38.33;;;7.00;99.90;;;;;;5027671;28;20072;-60
2022/03/15 08:44:37;;;;;;;49.25;38.25;;;7.00;99.90;;;;;;5045585;28;20045;-60
2022/03/15 08:47:03;;;;;;;48.33;35.85;;;7.10;99.90;;;;;;5045231;28;20048;-59
2022/03/15 08:49:29;;;;;;;50.70;37.92;;;7.10;99.90;;;;;;5044990;28;20041;-58
2022/03/15 08:51:55;;;;;;;46.35;37.08;;;7.20;99.90;;;;;;5043183;28;20060;-58
2022/03/15 08:54:22;;;;;;;45.78;37.22;;;7.20;99.90;;;;;;5027008;28;20077;-58
2022/03/15 08:56:49;;;;;;;42.78;34.97;;;7.20;99.90;;;;;;5010271;28;20087;-58
2022/03/15 08:59:16;;;;;;;50.10;36.55;;;7.30;99.90;;;;;;5059675;28;20379;-59
2022/03/15 09:01:42;;;;;;;47.50;34.95;;;7.30;99.90;;;;;;5059622;28;20056;-59
2022/03/15 09:04:08;;;;;;;45.97;35.13;;;7.30;99.90;;;;;;5025121;28;20049;-58
2022/03/15 09:06:34;;;;;;;44.78;35.75;;;7.30;99.90;;;;;;5043237;28;20056;-58
2022/03/15 09:09:01;;;;;;;44.72;36.75;;;7.30;99.90;;;;;;5044718;28;20132;-59
2022/03/15 09:11:29;;;;;;;46.45;36.55;;;7.30;99.90;;;;;;5044766;28;20084;-59
2022/03/15 09:13:55;;;;;;;51.28;37.75;;;7.40;99.90;;;;;;5043725;28;20049;-58
2022/03/15 09:16:22;;;;;;;50.63;40.22;;;7.40;99.90;;;;;;5043894;28;20037;-58
2022/03/15 09:18:48;;;;;;;42.20;35.72;;;7.40;99.90;;;;;;5044633;28;20045;-57
2022/03/15 09:21:15;;;;;;;49.00;36.90;;;7.40;99.90;;;;;;5027474;28;20083;-58
2022/03/15 09:23:41;;;;;;;46.15;35.55;;;7.40;99.90;;;;;;5045223;28;20178;-58
2022/03/15 09:26:07;;;;;;;45.28;36.85;;;7.40;99.90;;;;;;5027098;28;20045;-57
2022/03/15 09:28:33;;;;;;;47.55;34.50;;;7.50;99.90;;;;;;5024889;28;20049;-58
2022/03/15 09:31:01;;;;;;;41.10;35.75;;;7.50;99.90;;;;;;5044834;28;20132;-58
2022/03/15 09:33:28;;;;;;;68.38;52.70;;;7.50;99.90;;;;;;5045305;28;20683;-59
2022/03/15 09:35:54;;;;;;;55.50;41.72;;;7.60;99.90;;;;;;5043806;28;20048;-59
2022/03/15 09:38:21;;;;;;;42.22;36.33;;;7.60;99.90;;;;;;5044167;28;20133;-59
2022/03/15 09:40:52;;;;;;;40.63;34.38;;;7.70;99.90;;;;;;5043611;28;20445;-58
2022/03/15 09:43:22;;;;;;;42.92;35.08;;;7.70;99.90;;;;;;5044536;28;20075;-58
2022/03/15 09:45:50;;;;;;;43.38;35.85;;;7.70;99.90;;;;;;5043839;28;20404;-58
2022/03/15 09:48:20;;;;;;;44.47;35.80;;;7.80;99.90;;;;;;5043916;28;20045;-57
2022/03/15 09:50:50;;;;;;;39.05;33.03;;;7.80;99.90;;;;;;5042434;28;20098;-58
2022/03/15 09:53:18;;;;;;;41.60;34.00;;;7.90;99.90;;;;;;5043278;28;20053;-58
2022/03/15 09:55:46;;;;;;;40.15;35.55;;;7.90;99.90;;;;;;5043827;28;20083;-59
2022/03/15 09:58:20;;;;;;;41.67;35.00;;;8.00;99.90;;;;;;5043669;28;20271;-59
2022/03/15 10:00:54;;;;;;;40.10;33.97;;;8.10;99.90;;;;;;5043144;28;20159;-59
2022/03/15 10:03:21;;;;;;;40.58;33.65;;;8.20;99.90;;;;;;5043639;28;20118;-61
2022/03/15 10:05:49;;;;;;;40.85;34.58;;;8.30;99.90;;;;;;5041965;28;20064;-61
2022/03/15 10:08:17;;;;;;;40.90;32.47;;;8.40;99.90;;;;;;5043542;28;20045;-61
2022/03/15 10:10:48;;;;;;;37.92;33.63;;;8.50;99.90;;;;;;5043139;28;20069;-60
2022/03/15 10:13:15;;;;;;;37.45;33.40;;;8.50;99.90;;;;;;5043331;28;20052;-61
2022/03/15 10:15:50;;;;;;;42.05;32.97;;;8.60;99.90;;;;;;5043161;28;20048;-61
2022/03/15 10:18:18;;;;;;;38.47;31.10;;;8.60;99.90;;;;;;5058558;28;20037;-61
2022/03/15 10:20:44;;;;;;;37.63;32.97;;;8.60;99.90;;;;;;5043294;28;20106;-62
2022/03/15 10:23:10;;;;;;;38.85;31.77;;;8.70;99.90;;;;;;5043449;28;20048;-62
2022/03/15 10:25:40;;;;;;;37.03;31.10;;;8.70;99.90;;;;;;5042996;28;20392;-62
2022/03/15 10:28:08;;;;;;;38.35;33.22;;;8.70;99.90;;;;;;5042890;28;20403;-61
2022/03/15 10:30:35;;;;;;;41.88;34.28;;;8.70;99.90;;;;;;5042226;28;20049;-61
2022/03/15 10:33:02;;;;;;;41.22;32.90;;;8.80;99.90;;;;;;5042347;28;20045;-62
2022/03/15 10:35:40;;;;;;;42.60;33.97;;;8.90;99.90;;;;;;5043227;28;20119;-62
2022/03/15 10:38:07;;;;;;;35.92;31.95;;;9.00;99.90;;;;;;5042421;28;20358;-62
2022/03/15 10:40:42;;;;;;;39.20;33.22;;;9.20;99.90;;;;;;5041903;28;20049;-61
2022/03/15 10:43:23;;;;;;;39.28;33.10;;;9.40;99.90;;;;;;5025312;28;20049;-62
2022/03/15 10:45:57;;;;;;;39.08;32.10;;;9.50;99.90;;;;;;5042954;28;20694;-62
2022/03/15 10:48:27;;;;;;;35.22;31.50;;;9.70;99.90;;;;;;5042191;28;20048;-61
2022/03/15 10:50:58;;;;;;;36.75;30.08;;;9.80;99.90;;;;;;5042541;28;20569;-61
2022/03/15 10:53:27;;;;;;;38.00;31.43;;;9.80;99.90;;;;;;5043003;28;20053;-62
2022/03/15 10:56:15;;;;;;;36.75;30.17;;;9.80;99.90;;;;;;5040919;28;20080;-62
2022/03/15 10:58:50;;;;;;;31.65;28.27;;;9.90;99.90;;;;;;5042191;28;20118;-62
2022/03/15 11:01:18;;;;;;;31.52;26.90;;;10.00;99.90;;;;;;5058033;28;20145;-62
2022/03/15 11:04:10;;;;;;;29.20;26.08;;;10.00;99.90;;;;;;5042303;28;20049;-58
2022/03/15 11:06:43;;;;;;;30.27;25.73;;;10.10;99.90;;;;;;5042899;28;20135;-58
2022/03/15 11:09:24;;;;;;;37.25;26.92;;;10.20;99.90;;;;;;5041308;28;20069;-58
2022/03/15 11:12:02;;;;;;;25.92;23.17;;;10.20;99.90;;;;;;5040902;28;20452;-58
2022/03/15 11:14:47;;;;;;;30.02;25.67;;;10.20;99.90;;;;;;5043040;28;20452;-58
2022/03/15 11:17:20;;;;;;;28.23;24.83;;;10.30;99.90;;;;;;5024974;28;20048;-58
2022/03/15 11:19:53;;;;;;;34.90;29.23;;;10.30;99.90;;;;;;5039649;28;20037;-58
2022/03/15 11:22:30;;;;;;;26.42;22.50;;;10.40;99.90;;;;;;5024781;28;20067;-59
2022/03/15 11:25:12;;;;;;;32.55;23.40;;;10.40;99.90;;;;;;5041372;28;20704;-59
2022/03/15 11:27:40;;;;;;;27.08;22.77;;;10.50;99.90;;;;;;5058670;28;20734;-59
2022/03/15 11:30:13;;;;;;;23.92;19.08;;;10.60;99.90;;;;;;5044124;28;20044;-59
2022/03/15 11:32:41;;;;;;;26.40;20.73;;;10.60;99.90;;;;;;5043710;28;20041;-59
2022/03/15 11:35:09;;;;;;;23.05;20.33;;;10.60;99.90;;;;;;5047955;28;20053;-59
2022/03/15 11:37:35;;;;;;;22.63;19.98;;;10.70;99.90;;;;;;5047994;28;20048;-58
2022/03/15 11:40:04;;;;;;;22.95;18.02;;;10.70;99.90;;;;;;5046534;28;20127;-59
2022/03/15 11:42:32;;;;;;;23.13;17.70;;;10.70;99.90;;;;;;5047205;28;20664;-59
2022/03/15 11:45:34;;;;;;;19.38;17.23;;;10.70;99.90;;;;;;5044456;28;20102;-59
2022/03/15 11:48:12;;;;;;;25.13;19.63;;;10.80;99.90;;;;;;5046665;28;20044;-59
2022/03/15 11:50:42;;;;;;;22.73;19.73;;;10.70;99.90;;;;;;5043795;28;20049;-59
2022/03/15 11:53:27;;;;;;;28.08;20.58;;;10.80;99.90;;;;;;5053381;28;20060;-59
2022/03/15 11:56:00;;;;;;;24.45;20.15;;;10.80;99.90;;;;;;5042262;28;20044;-59
2022/03/15 11:58:28;;;;;;;22.98;20.55;;;10.80;99.90;;;;;;5044380;28;20587;-58
2022/03/15 12:00:57;;;;;;;26.85;21.38;;;10.90;99.90;;;;;;5048766;28;20178;-59
2022/03/15 12:03:24;;;;;;;24.30;19.45;;;11.00;99.90;;;;;;5050841;28;20511;-59
2022/03/15 12:05:52;;;;;;;22.65;19.42;;;11.00;99.90;;;;;;5054818;28;20045;-58
2022/03/15 12:08:20;;;;;;;25.45;19.77;;;11.10;99.90;;;;;;5048817;28;20710;-59
2022/03/15 12:11:01;;;;;;;26.67;21.20;;;11.10;99.90;;;;;;5037925;28;20128;-59
2022/03/15 12:13:45;;;;;;;21.75;17.48;;;11.20;99.90;;;;;;5040073;28;20492;-59
2022/03/15 12:16:24;;;;;;;21.55;19.08;;;11.30;99.90;;;;;;5038239;28;20060;-59
2022/03/15 12:19:06;;;;;;;21.83;19.50;;;11.30;99.90;;;;;;5037956;28;20044;-59
2022/03/15 12:21:49;;;;;;;19.67;16.65;;;11.30;99.90;;;;;;5038248;28;20044;-60
2022/03/15 12:24:28;;;;;;;22.15;18.55;;;11.50;99.90;;;;;;5039987;28;20049;-59
2022/03/15 12:27:03;;;;;;;22.30;17.77;;;11.50;99.90;;;;;;5038837;28;20119;-59
2022/03/15 12:29:30;;;;;;;22.70;17.77;;;11.60;99.90;;;;;;5038919;28;20055;-60
2022/03/15 12:31:57;;;;;;;20.35;16.73;;;11.70;99.90;;;;;;5054653;28;20052;-59
2022/03/15 12:34:27;;;;;;;24.77;15.55;;;11.90;99.90;;;;;;5038787;28;20134;-59
2022/03/15 12:36:58;;;;;;;15.23;12.98;;;12.00;99.90;;;;;;5039896;28;20567;-59
2022/03/15 12:39:32;;;;;;;16.27;13.82;;;12.10;99.90;;;;;;5037443;28;20049;-59
2022/03/15 12:42:13;;;;;;;21.35;15.68;;;12.30;99.90;;;;;;5038203;28;20501;-59
2022/03/15 12:45:14;;;;;;;20.90;16.60;;;12.40;99.90;;;;;;5039151;28;20111;-59
2022/03/15 12:47:47;;;;;;;20.70;18.52;;;12.60;99.90;;;;;;5040270;28;20053;-60